createdAt,value
2022-10-05T00:00:20.287Z,14.00
2022-10-05T00:03:12.280Z,16.90
2022-10-05T00:05:40.387Z,12.30
2022-10-05T00:08:11.186Z,14.90
2022-10-05T00:10:41.737Z,15.10
2022-10-05T00:13:24.892Z,14.10
2022-10-05T00:16:09.731Z,11.80
2022-10-05T00:18:38.713Z,13.90
2022-10-05T00:21:19.830Z,13.50
2022-10-05T00:23:48.625Z,14.00
2022-10-05T00:26:27.913Z,12.10
2022-10-05T00:28:56.041Z,12.40
2022-10-05T00:31:30.371Z,11.80
2022-10-05T00:33:59.130Z,13.00
2022-10-05T00:36:27.294Z,11.90
2022-10-05T00:38:55.598Z,14.10
2022-10-05T00:42:01.495Z,16.80
2022-10-05T00:44:52.427Z,16.10
2022-10-05T00:47:46.488Z,15.70
2022-10-05T00:50:28.459Z,14.00
2022-10-05T00:53:18.461Z,12.10
2022-10-05T00:55:57.031Z,11.90
2022-10-05T00:58:49.557Z,12.50
2022-10-05T01:01:27.559Z,11.80
2022-10-05T01:04:18.760Z,13.90
2022-10-05T01:06:58.603Z,11.30
2022-10-05T01:09:31.206Z,13.20
2022-10-05T01:12:17.834Z,11.60
2022-10-05T01:15:13.974Z,15.30
2022-10-05T01:18:17.619Z,12.60
2022-10-05T01:21:16.679Z,13.50
2022-10-05T01:24:06.566Z,12.60
2022-10-05T01:27:12.017Z,13.60
2022-10-05T01:29:54.993Z,17.20
2022-10-05T01:32:29.479Z,14.00
2022-10-05T01:35:11.592Z,12.50
2022-10-05T01:38:04.023Z,13.20
2022-10-05T01:41:15.340Z,13.00
2022-10-05T01:43:48.511Z,12.40
2022-10-05T01:46:30.313Z,14.80
2022-10-05T01:49:25.202Z,14.60
2022-10-05T01:52:19.317Z,14.50
2022-10-05T01:55:13.079Z,14.80
2022-10-05T01:58:00.889Z,18.00
2022-10-05T02:00:32.141Z,17.40
2022-10-05T02:03:13.737Z,12.00
2022-10-05T02:05:58.823Z,13.10
2022-10-05T02:09:08.539Z,13.40
2022-10-05T02:11:39.818Z,14.60
2022-10-05T02:14:13.607Z,17.60
2022-10-05T02:16:51.601Z,14.20
2022-10-05T02:19:48.938Z,12.10
2022-10-05T02:22:24.115Z,11.70
2022-10-05T02:24:57.756Z,15.40
2022-10-05T02:27:34.654Z,13.60
2022-10-05T02:30:07.351Z,10.80
2022-10-05T02:32:47.845Z,13.60
2022-10-05T02:35:18.921Z,13.70
2022-10-05T02:38:14.001Z,13.50
2022-10-05T02:41:01.065Z,17.50
2022-10-05T02:43:48.706Z,13.90
2022-10-05T02:46:20.233Z,12.30
2022-10-05T02:48:57.173Z,12.30
2022-10-05T02:51:48.727Z,16.10
2022-10-05T02:55:02.282Z,15.90
2022-10-05T02:57:33.391Z,13.80
2022-10-05T03:00:13.395Z,13.30
2022-10-05T03:02:53.179Z,15.50
2022-10-05T03:05:32.103Z,16.40
2022-10-05T03:08:09.828Z,18.30
2022-10-05T03:10:46.783Z,13.40
2022-10-05T03:13:33.455Z,15.70
2022-10-05T03:16:10.176Z,14.30
2022-10-05T03:18:44.388Z,16.50
2022-10-05T03:21:30.529Z,14.70
2022-10-05T03:24:08.326Z,13.20
2022-10-05T03:26:49.300Z,15.00
2022-10-05T03:29:47.277Z,13.70
2022-10-05T03:32:30.623Z,12.20
2022-10-05T03:35:13.505Z,14.90
2022-10-05T03:38:00.585Z,14.40
2022-10-05T03:41:05.196Z,14.10
2022-10-05T03:44:02.648Z,14.50
2022-10-05T03:46:55.783Z,12.50
2022-10-05T03:49:33.280Z,14.20
2022-10-05T03:52:17.857Z,15.30
2022-10-05T03:54:51.467Z,14.20
2022-10-05T03:57:29.394Z,17.00
2022-10-05T04:00:07.058Z,12.20
2022-10-05T04:03:11.516Z,15.30
2022-10-05T04:05:48.892Z,11.20
2022-10-05T04:08:34.958Z,16.70
2022-10-05T04:11:21.692Z,14.10
2022-10-05T04:13:56.722Z,11.10
2022-10-05T04:16:34.856Z,13.00
2022-10-05T04:19:19.450Z,11.80
2022-10-05T04:22:20.476Z,14.50
2022-10-05T04:25:17.223Z,16.20
2022-10-05T04:27:57.434Z,14.00
2022-10-05T04:30:25.886Z,14.70
2022-10-05T04:32:58.784Z,14.80
2022-10-05T04:36:03.912Z,18.60
2022-10-05T04:39:16.298Z,22.60
2022-10-05T04:42:04.623Z,19.20
2022-10-05T04:44:47.896Z,18.10
2022-10-05T04:47:25.284Z,17.10
2022-10-05T04:50:16.438Z,14.70
2022-10-05T04:53:19.725Z,18.70
2022-10-05T04:56:00.604Z,20.40
2022-10-05T04:58:36.771Z,22.40
2022-10-05T05:01:38.044Z,27.10
2022-10-05T05:04:41.654Z,25.60
2022-10-05T05:07:29.212Z,25.10
2022-10-05T05:10:03.301Z,32.30
2022-10-05T05:12:50.298Z,24.30
2022-10-05T05:15:47.270Z,23.30
2022-10-05T05:18:37.513Z,21.80
2022-10-05T05:21:41.068Z,25.30
2022-10-05T05:24:25.250Z,21.80
2022-10-05T05:27:23.119Z,16.60
2022-10-05T05:30:16.191Z,13.90
2022-10-05T05:33:01.614Z,16.40
2022-10-05T05:36:07.890Z,15.20
2022-10-05T05:38:43.128Z,19.40
2022-10-05T05:41:25.052Z,15.30
2022-10-05T05:44:11.721Z,15.60
2022-10-05T05:47:22.222Z,14.60
2022-10-05T05:50:15.356Z,13.80
2022-10-05T05:52:47.155Z,17.50
2022-10-05T05:55:52.086Z,18.40
2022-10-05T05:58:29.339Z,21.10
2022-10-05T06:01:33.693Z,13.60
2022-10-05T06:04:09.412Z,15.40
2022-10-05T06:06:43.032Z,13.50
2022-10-05T06:09:38.214Z,14.90
2022-10-05T06:12:40.923Z,12.80
2022-10-05T06:15:54.316Z,17.50
2022-10-05T06:18:24.105Z,14.70
2022-10-05T06:21:06.999Z,15.30
2022-10-05T06:24:10.414Z,14.10
2022-10-05T06:27:02.444Z,14.70
2022-10-05T06:29:59.121Z,18.20
2022-10-05T06:32:36.032Z,14.20
2022-10-05T06:35:07.375Z,16.20
2022-10-05T06:38:01.601Z,13.50
2022-10-05T06:40:51.149Z,14.00
2022-10-05T06:43:30.915Z,14.90
2022-10-05T06:46:49.511Z,15.50
2022-10-05T06:49:51.988Z,11.30
2022-10-05T06:53:09.178Z,12.00
2022-10-05T06:55:51.871Z,15.50
2022-10-05T06:58:51.005Z,21.70
2022-10-05T07:01:20.837Z,17.30
2022-10-05T07:03:55.800Z,17.30
2022-10-05T07:06:29.741Z,15.60
2022-10-05T07:09:31.329Z,19.50
2022-10-05T07:12:12.343Z,15.90
2022-10-05T07:15:03.924Z,12.60
2022-10-05T07:17:59.173Z,12.10
2022-10-05T07:21:05.049Z,16.20
2022-10-05T07:23:44.797Z,16.00
2022-10-05T07:26:20.808Z,17.20
2022-10-05T07:29:10.825Z,18.00
2022-10-05T07:31:39.248Z,11.60
2022-10-05T07:34:15.481Z,12.70
2022-10-05T07:37:29.090Z,11.60
2022-10-05T07:40:09.949Z,12.10
2022-10-05T07:42:56.673Z,13.40
2022-10-05T07:45:31.101Z,16.20
2022-10-05T07:48:13.172Z,14.10
2022-10-05T07:51:00.032Z,11.60
2022-10-05T07:53:43.296Z,12.20
2022-10-05T07:56:28.015Z,14.10
2022-10-05T07:59:03.321Z,11.90
2022-10-05T08:01:43.215Z,11.30
2022-10-05T08:04:40.726Z,10.10
2022-10-05T08:07:16.001Z,11.80
2022-10-05T08:09:52.979Z,10.90
2022-10-05T08:12:41.543Z,12.00
2022-10-05T08:15:16.724Z,9.80
2022-10-05T08:18:02.547Z,15.20
2022-10-05T08:20:39.005Z,14.30
2022-10-05T08:23:38.909Z,11.70
2022-10-05T08:26:13.929Z,8.20
2022-10-05T08:28:52.512Z,10.20
2022-10-05T08:31:25.356Z,9.20
2022-10-05T08:34:22.266Z,12.50
2022-10-05T08:37:02.777Z,9.40
2022-10-05T08:40:13.046Z,11.20
2022-10-05T08:42:44.407Z,18.00
2022-10-05T08:45:34.280Z,16.10
2022-10-05T08:48:14.323Z,15.70
2022-10-05T08:51:13.686Z,14.10
2022-10-05T08:53:56.888Z,13.10
2022-10-05T08:56:42.039Z,12.40
2022-10-05T08:59:37.860Z,22.50
2022-10-05T09:02:13.181Z,15.30
2022-10-05T09:05:11.567Z,13.60
2022-10-05T09:08:15.048Z,16.40
2022-10-05T09:10:54.934Z,12.80
2022-10-05T09:13:47.902Z,10.80
2022-10-05T09:16:37.523Z,8.60
2022-10-05T09:19:06.441Z,13.10
2022-10-05T09:21:57.720Z,9.70
2022-10-05T09:24:49.025Z,10.10
2022-10-05T09:27:19.092Z,9.40
2022-10-05T09:30:02.694Z,9.40
2022-10-05T09:33:08.807Z,7.00
2022-10-05T09:36:00.619Z,9.90
2022-10-05T09:38:54.006Z,11.20
2022-10-05T09:41:44.279Z,10.70
2022-10-05T09:44:41.695Z,10.70
2022-10-05T09:47:47.187Z,8.20
2022-10-05T09:50:38.239Z,10.20
2022-10-05T09:53:18.226Z,11.80
2022-10-05T09:55:57.960Z,10.90
2022-10-05T09:58:42.629Z,8.60
2022-10-05T10:01:34.055Z,8.60
2022-10-05T10:04:35.912Z,9.10
2022-10-05T10:07:41.452Z,10.80
2022-10-05T10:10:31.856Z,10.10
2022-10-05T10:13:39.472Z,8.10
2022-10-05T10:16:16.936Z,12.90
2022-10-05T10:19:32.447Z,10.20
2022-10-05T10:22:27.484Z,13.50
2022-10-05T10:25:06.025Z,9.60
2022-10-05T10:27:54.350Z,12.20
2022-10-05T10:30:52.051Z,10.20
2022-10-05T10:33:57.138Z,8.50
2022-10-05T10:36:40.241Z,10.20
2022-10-05T10:39:29.640Z,10.90
2022-10-05T10:42:35.474Z,7.80
2022-10-05T10:45:28.803Z,7.70
2022-10-05T10:48:05.368Z,10.10
2022-10-05T10:50:49.728Z,9.50
2022-10-05T10:53:32.971Z,9.70
2022-10-05T10:56:14.245Z,8.50
2022-10-05T10:58:57.386Z,9.30
2022-10-05T11:01:29.776Z,7.20
2022-10-05T11:04:19.134Z,6.90
2022-10-05T11:07:06.135Z,9.70
2022-10-05T11:10:01.041Z,7.50
2022-10-05T11:13:01.186Z,7.60
2022-10-05T11:16:04.101Z,8.10
2022-10-05T11:18:51.262Z,8.30
2022-10-05T11:22:17.267Z,9.30
2022-10-05T11:25:15.682Z,8.00
2022-10-05T11:28:20.037Z,12.20
2022-10-05T11:30:54.371Z,8.60
2022-10-05T11:33:44.285Z,9.50
2022-10-05T11:36:21.620Z,9.10
2022-10-05T11:39:22.648Z,8.60
2022-10-05T11:42:09.321Z,8.60
2022-10-05T11:45:00.190Z,9.30
2022-10-05T11:47:33.423Z,8.10
2022-10-05T11:50:17.487Z,10.30
2022-10-05T11:53:22.997Z,8.70
2022-10-05T11:56:22.085Z,11.30
2022-10-05T11:59:15.059Z,10.00
2022-10-05T12:02:08.307Z,10.20
2022-10-05T12:04:40.621Z,9.80
2022-10-05T12:07:20.896Z,11.40
2022-10-05T12:10:17.102Z,10.60
2022-10-05T12:12:45.390Z,11.90
2022-10-05T12:15:27.147Z,11.00
2022-10-05T12:18:01.166Z,11.70
2022-10-05T12:20:40.905Z,11.40
2022-10-05T12:23:30.904Z,11.60
2022-10-05T12:26:04.468Z,9.60
2022-10-05T12:28:42.275Z,9.70
2022-10-05T12:31:19.541Z,9.90
2022-10-05T12:34:15.724Z,9.90
2022-10-05T12:37:08.210Z,12.30
2022-10-05T12:39:46.546Z,12.70
2022-10-05T12:42:30.704Z,10.20
2022-10-05T12:45:16.732Z,9.90
2022-10-05T12:48:12.774Z,8.20
2022-10-05T12:50:57.719Z,11.10
2022-10-05T12:53:37.267Z,9.40
2022-10-05T12:56:26.682Z,10.10
2022-10-05T12:59:22.541Z,11.20
2022-10-05T13:01:59.631Z,7.90
2022-10-05T13:04:52.145Z,9.60
2022-10-05T13:07:38.939Z,11.80
2022-10-05T13:10:07.552Z,12.10
2022-10-05T13:12:58.191Z,12.30
2022-10-05T13:15:30.994Z,13.00
2022-10-05T13:18:20.190Z,10.00
2022-10-05T13:21:12.198Z,14.00
2022-10-05T13:24:14.806Z,8.90
2022-10-05T13:26:49.884Z,9.60
2022-10-05T13:29:35.064Z,8.90
2022-10-05T13:32:12.759Z,11.30
2022-10-05T13:35:11.267Z,10.70
2022-10-05T13:37:53.095Z,9.60
2022-10-05T13:40:25.076Z,9.70
2022-10-05T13:43:04.238Z,11.50
2022-10-05T13:46:07.333Z,9.30
2022-10-05T13:49:01.632Z,11.80
2022-10-05T13:52:08.964Z,7.50
2022-10-05T13:54:42.137Z,11.00
2022-10-05T13:57:28.631Z,8.60
2022-10-05T14:00:27.017Z,9.90
2022-10-05T14:02:58.003Z,8.70
2022-10-05T14:05:27.824Z,10.90
2022-10-05T14:08:02.854Z,7.90
2022-10-05T14:10:37.603Z,9.70
2022-10-05T14:13:21.010Z,10.00
2022-10-05T14:16:13.839Z,11.50
2022-10-05T14:19:04.070Z,12.50
2022-10-05T14:21:43.345Z,17.50
2022-10-05T14:24:47.557Z,15.10
2022-10-05T14:27:31.242Z,9.50
2022-10-05T14:30:18.561Z,10.00
2022-10-05T14:33:12.966Z,11.20
2022-10-05T14:35:50.847Z,10.10
2022-10-05T14:38:21.534Z,9.20
2022-10-05T14:41:06.550Z,13.80
2022-10-05T14:43:35.498Z,9.20
2022-10-05T14:46:23.225Z,10.80
2022-10-05T14:49:23.177Z,8.00
2022-10-05T14:51:53.905Z,11.00
2022-10-05T14:54:24.075Z,9.70
2022-10-05T14:56:58.575Z,8.40
2022-10-05T15:00:00.513Z,17.60
2022-10-05T15:02:32.224Z,11.30
2022-10-05T15:05:17.562Z,13.90
2022-10-05T15:07:50.336Z,12.90
2022-10-05T15:10:33.413Z,10.90
2022-10-05T15:13:22.637Z,11.00
2022-10-05T15:15:55.435Z,12.30
2022-10-05T15:18:49.094Z,12.00
2022-10-05T15:21:32.424Z,12.00
2022-10-05T15:24:05.666Z,15.90
2022-10-05T15:26:47.505Z,15.70
2022-10-05T15:29:18.876Z,12.70
2022-10-05T15:32:14.868Z,15.00
2022-10-05T15:34:56.791Z,13.80
2022-10-05T15:37:33.232Z,13.30
2022-10-05T15:40:14.873Z,16.90
2022-10-05T15:42:43.914Z,15.10
2022-10-05T15:45:24.136Z,16.70
2022-10-05T15:48:20.301Z,18.10
2022-10-05T15:50:57.514Z,11.80
2022-10-05T15:53:46.081Z,12.10
2022-10-05T15:56:30.225Z,12.30
2022-10-05T15:59:19.039Z,12.80
2022-10-05T16:01:56.847Z,14.00
2022-10-05T16:05:07.810Z,20.80
2022-10-05T16:08:04.682Z,22.50
2022-10-05T16:10:37.157Z,15.20
2022-10-05T16:13:28.897Z,11.70
2022-10-05T16:16:21.080Z,12.40
2022-10-05T16:19:03.167Z,12.20
2022-10-05T16:22:16.640Z,10.80
2022-10-05T16:25:05.921Z,12.80
2022-10-05T16:27:43.055Z,11.80
2022-10-05T16:30:16.807Z,9.60
2022-10-05T16:33:03.469Z,10.50
2022-10-05T16:36:03.365Z,10.60
2022-10-05T16:38:47.083Z,9.50
2022-10-05T16:41:47.751Z,9.50
2022-10-05T16:44:34.076Z,12.00
2022-10-05T16:47:40.715Z,10.10
2022-10-05T16:50:15.642Z,13.30
2022-10-05T16:52:47.135Z,10.40
2022-10-05T16:55:26.321Z,11.40
2022-10-05T16:57:57.128Z,11.30
2022-10-05T17:00:40.224Z,13.70
2022-10-05T17:03:21.598Z,26.80
2022-10-05T17:06:20.611Z,12.60
2022-10-05T17:09:10.396Z,15.20
2022-10-05T17:11:57.217Z,19.80
2022-10-05T17:14:40.862Z,22.50
2022-10-05T17:17:31.744Z,22.00
2022-10-05T17:20:18.846Z,16.00
2022-10-05T17:22:59.667Z,13.70
2022-10-05T17:25:54.398Z,18.80
2022-10-05T17:28:37.447Z,17.60
2022-10-05T17:31:13.930Z,16.30
2022-10-05T17:34:00.146Z,17.70
2022-10-05T17:36:49.915Z,18.30
2022-10-05T17:39:43.955Z,15.10
2022-10-05T17:42:30.084Z,16.90
2022-10-05T17:45:02.574Z,14.70
2022-10-05T17:47:55.507Z,16.30
2022-10-05T17:51:05.337Z,14.80
2022-10-05T17:54:01.530Z,13.80
2022-10-05T17:56:34.023Z,17.00
2022-10-05T17:59:09.403Z,13.20
2022-10-05T18:01:40.856Z,12.90
2022-10-05T18:04:12.067Z,13.40
2022-10-05T18:06:52.791Z,14.30
2022-10-05T18:09:24.856Z,17.20
2022-10-05T18:11:55.797Z,10.90
2022-10-05T18:14:25.133Z,10.50
2022-10-05T18:17:10.151Z,15.00
2022-10-05T18:19:39.702Z,14.10
2022-10-05T18:22:15.726Z,11.50
2022-10-05T18:24:53.280Z,12.90
2022-10-05T18:27:40.022Z,20.60
2022-10-05T18:30:23.360Z,20.70
2022-10-05T18:32:54.593Z,15.10
2022-10-05T18:35:48.183Z,17.60
2022-10-05T18:38:43.849Z,20.30
2022-10-05T18:41:36.281Z,18.40
2022-10-05T18:44:18.810Z,17.00
2022-10-05T18:47:23.903Z,22.40
2022-10-05T18:50:16.963Z,23.80
2022-10-05T18:53:04.663Z,15.00
2022-10-05T18:55:42.851Z,13.30
2022-10-05T18:58:19.246Z,12.40
2022-10-05T19:01:23.505Z,11.40
2022-10-05T19:04:27.285Z,12.70
2022-10-05T19:07:27.965Z,12.40
2022-10-05T19:10:18.695Z,13.40
2022-10-05T19:12:55.076Z,11.50
2022-10-05T19:15:50.848Z,13.90
2022-10-05T19:18:42.623Z,13.10
2022-10-05T19:21:48.515Z,12.00
2022-10-05T19:24:32.594Z,11.20
2022-10-05T19:27:26.580Z,12.50
2022-10-05T19:30:23.149Z,12.00
2022-10-05T19:32:57.304Z,21.90
2022-10-05T19:35:42.681Z,19.60
2022-10-05T19:38:32.915Z,19.40
2022-10-05T19:41:30.180Z,15.80
2022-10-05T19:44:27.575Z,14.50
2022-10-05T19:47:15.193Z,14.50
2022-10-05T19:49:58.764Z,12.70
2022-10-05T19:52:31.257Z,11.00
2022-10-05T19:55:14.145Z,9.40
2022-10-05T19:57:54.018Z,13.30
2022-10-05T20:00:26.869Z,10.10
2022-10-05T20:03:12.141Z,11.70
2022-10-05T20:05:41.161Z,10.70
2022-10-05T20:08:17.726Z,11.30
2022-10-05T20:11:19.493Z,13.70
2022-10-05T20:14:10.226Z,15.10
2022-10-05T20:16:57.189Z,13.70
2022-10-05T20:19:50.065Z,13.30
2022-10-05T20:22:25.257Z,13.60
2022-10-05T20:24:56.468Z,12.50
2022-10-05T20:27:52.165Z,13.20
2022-10-05T20:30:25.815Z,15.90
2022-10-05T20:32:59.674Z,11.20
2022-10-05T20:35:30.957Z,10.50
2022-10-05T20:38:12.303Z,12.00
2022-10-05T20:40:40.380Z,13.30
2022-10-05T20:43:30.372Z,11.30
2022-10-05T20:45:58.454Z,12.30
2022-10-05T20:48:30.059Z,9.10
2022-10-05T20:51:01.872Z,11.20
2022-10-05T20:53:29.963Z,12.50
2022-10-05T20:56:02.746Z,10.50
2022-10-05T20:58:31.175Z,13.40
2022-10-05T21:01:18.251Z,11.50
2022-10-05T21:03:46.859Z,10.70
2022-10-05T21:06:15.861Z,10.30
2022-10-05T21:08:46.624Z,11.10
2022-10-05T21:11:14.706Z,9.80
2022-10-05T21:13:44.939Z,11.70
2022-10-05T21:16:19.039Z,9.60
2022-10-05T21:18:48.896Z,11.80
2022-10-05T21:21:17.914Z,12.50
2022-10-05T21:23:47.631Z,11.50
2022-10-05T21:26:16.126Z,14.80
2022-10-05T21:28:44.780Z,11.30
2022-10-05T21:31:13.259Z,12.90
2022-10-05T21:33:41.666Z,10.60
2022-10-05T21:36:10.009Z,12.50
2022-10-05T21:38:38.913Z,11.00
2022-10-05T21:41:15.642Z,12.50
2022-10-05T21:43:44.234Z,12.20
2022-10-05T21:46:16.767Z,9.20
2022-10-05T21:48:45.008Z,10.80
2022-10-05T21:51:19.085Z,14.20
2022-10-05T21:53:52.364Z,9.00
2022-10-05T21:56:23.708Z,11.40
2022-10-05T21:58:52.663Z,13.50
2022-10-05T22:01:22.878Z,12.00
2022-10-05T22:03:57.074Z,10.60
2022-10-05T22:06:25.277Z,11.00
2022-10-05T22:08:53.147Z,12.00
2022-10-05T22:11:21.047Z,11.50
2022-10-05T22:13:51.651Z,12.30
2022-10-05T22:16:22.495Z,15.00
2022-10-05T22:18:50.967Z,12.90
2022-10-05T22:21:21.205Z,11.30
2022-10-05T22:23:49.491Z,10.80
2022-10-05T22:26:21.294Z,10.90
2022-10-05T22:28:52.617Z,9.10
2022-10-05T22:31:20.858Z,9.50
2022-10-05T22:33:48.814Z,12.20
2022-10-05T22:36:16.916Z,10.10
2022-10-05T22:38:46.690Z,11.00
2022-10-05T22:41:18.455Z,10.70
2022-10-05T22:43:50.961Z,9.90
2022-10-05T22:46:20.497Z,16.40
2022-10-05T22:48:48.444Z,15.30
2022-10-05T22:51:16.559Z,10.60
2022-10-05T22:53:44.633Z,12.10
2022-10-05T22:56:13.984Z,10.60
2022-10-05T22:58:43.224Z,13.90
2022-10-05T23:01:14.341Z,10.80
2022-10-05T23:03:43.020Z,8.90
2022-10-05T23:06:19.482Z,11.40
2022-10-05T23:08:48.108Z,9.70
2022-10-05T23:11:25.991Z,10.10
2022-10-05T23:13:58.801Z,9.90
2022-10-05T23:16:29.274Z,10.90
2022-10-05T23:18:57.862Z,9.40
2022-10-05T23:21:29.324Z,12.50
2022-10-05T23:23:57.276Z,11.20
2022-10-05T23:26:26.494Z,10.20
2022-10-05T23:28:54.375Z,10.30
2022-10-05T23:31:29.359Z,12.30
2022-10-05T23:33:57.875Z,12.20
2022-10-05T23:36:31.569Z,9.70
2022-10-05T23:39:00.243Z,9.70
2022-10-05T23:41:28.261Z,9.30
2022-10-05T23:43:56.255Z,9.80
2022-10-05T23:46:24.524Z,10.10
2022-10-05T23:48:53.380Z,14.80
2022-10-05T23:51:21.534Z,10.00
2022-10-05T23:53:49.570Z,12.90
2022-10-05T23:56:17.639Z,10.40
2022-10-05T23:58:45.665Z,10.20
